sensor_id;sensor_type;location;lat;lon;timestamp;pressure;altitude;pressure_sealevel;temperature;humidity
20630;BME280;17386;43.846;25.950;2023-04-07T00:01:41;101078.28;;;6.23;69.99
20630;BME280;17386;43.846;25.950;2023-04-07T00:04:07;101072.97;;;6.28;70.00
20630;BME280;17386;43.846;25.950;2023-04-07T00:06:32;101074.63;;;6.35;70.07
20630;BME280;17386;43.846;25.950;2023-04-07T00:08:57;101074.59;;;6.37;70.30
20630;BME280;17386;43.846;25.950;2023-04-07T00:11:23;101071.13;;;6.33;71.02
20630;BME280;17386;43.846;25.950;2023-04-07T00:13:48;101084.34;;;6.30;71.75
20630;BME280;17386;43.846;25.950;2023-04-07T00:16:14;101069.50;;;6.23;71.76
20630;BME280;17386;43.846;25.950;2023-04-07T00:18:39;101083.63;;;6.17;72.47
20630;BME280;17386;43.846;25.950;2023-04-07T00:21:05;101075.81;;;6.11;72.45
20630;BME280;17386;43.846;25.950;2023-04-07T00:23:30;101077.47;;;6.17;72.57
20630;BME280;17386;43.846;25.950;2023-04-07T00:25:55;101075.81;;;6.11;72.72
20630;BME280;17386;43.846;25.950;2023-04-07T00:28:21;101076.63;;;6.18;72.64
20630;BME280;17386;43.846;25.950;2023-04-07T00:30:46;101080.13;;;6.17;73.22
20630;BME280;17386;43.846;25.950;2023-04-07T00:33:12;101067.91;;;6.11;73.29
20630;BME280;17386;43.846;25.950;2023-04-07T00:35:37;101075.81;;;6.11;74.03
20630;BME280;17386;43.846;25.950;2023-04-07T00:38:03;101078.41;;;6.14;73.93
20630;BME280;17386;43.846;25.950;2023-04-07T00:40:28;101083.72;;;6.13;73.82
20630;BME280;17386;43.846;25.950;2023-04-07T00:42:53;101077.56;;;6.12;74.21
20630;BME280;17386;43.846;25.950;2023-04-07T00:45:19;101079.28;;;6.15;74.51
20630;BME280;17386;43.846;25.950;2023-04-07T00:47:44;101076.72;;;6.07;75.31
20630;BME280;17386;43.846;25.950;2023-04-07T00:50:10;101071.44;;;6.09;75.37
20630;BME280;17386;43.846;25.950;2023-04-07T00:52:35;101079.31;;;6.13;75.47
20630;BME280;17386;43.846;25.950;2023-04-07T00:55:01;101073.09;;;6.19;75.44
20630;BME280;17386;43.846;25.950;2023-04-07T00:57:26;101081.00;;;6.19;75.74
20630;BME280;17386;43.846;25.950;2023-04-07T00:59:52;101083.63;;;6.17;75.58
20630;BME280;17386;43.846;25.950;2023-04-07T01:02:23;101074.03;;;6.13;76.16
20630;BME280;17386;43.846;25.950;2023-04-07T01:05:01;101074.78;;;6.21;76.01
20630;BME280;17386;43.846;25.950;2023-04-07T01:07:46;101075.63;;;6.23;75.70
20630;BME280;17386;43.846;25.950;2023-04-07T01:10:21;101063.34;;;6.22;75.76
20630;BME280;17386;43.846;25.950;2023-04-07T01:13:01;101065.00;;;6.33;75.71
20630;BME280;17386;43.846;25.950;2023-04-07T01:15:33;101065.00;;;6.29;76.02
20630;BME280;17386;43.846;25.950;2023-04-07T01:18:11;101071.06;;;6.39;76.21
20630;BME280;17386;43.846;25.950;2023-04-07T01:20:38;101073.59;;;6.47;75.31
20630;BME280;17386;43.846;25.950;2023-04-07T01:23:06;101056.88;;;6.48;75.71
20630;BME280;17386;43.846;25.950;2023-04-07T01:26:06;101069.91;;;6.57;74.78
20630;BME280;17386;43.846;25.950;2023-04-07T01:31:09;101066.47;;;6.53;75.24
20630;BME280;17386;43.846;25.950;2023-04-07T01:33:36;101067.25;;;6.60;74.92
20630;BME280;17386;43.846;25.950;2023-04-07T01:36:04;101064.63;;;6.58;75.13
20630;BME280;17386;43.846;25.950;2023-04-07T01:38:32;101068.97;;;6.63;74.78
20630;BME280;17386;43.846;25.950;2023-04-07T01:40:58;101071.63;;;6.61;75.14
20630;BME280;17386;43.846;25.950;2023-04-07T01:43:25;101064.63;;;6.60;74.69
20630;BME280;17386;43.846;25.950;2023-04-07T01:45:53;101067.34;;;6.54;75.54
20630;BME280;17386;43.846;25.950;2023-04-07T01:48:19;101069.84;;;6.63;75.41
20630;BME280;17386;43.846;25.950;2023-04-07T01:50:45;101060.13;;;6.65;75.25
20630;BME280;17386;43.846;25.950;2023-04-07T01:53:13;101068.25;;;6.53;75.29
20630;BME280;17386;43.846;25.950;2023-04-07T01:55:41;101073.59;;;6.47;76.02
20630;BME280;17386;43.846;25.950;2023-04-07T01:58:06;101067.72;;;6.26;76.59
20630;BME280;17386;43.846;25.950;2023-04-07T02:00:32;101064.91;;;6.39;76.75
20630;BME280;17386;43.846;25.950;2023-04-07T02:03:14;101060.44;;;6.44;76.60
20630;BME280;17386;43.846;25.950;2023-04-07T02:05:46;101069.13;;;6.50;75.83
20630;BME280;17386;43.846;25.950;2023-04-07T02:08:15;101064.91;;;6.37;75.81
20630;BME280;17386;43.846;25.950;2023-04-07T02:10:45;101057.69;;;6.51;75.60
20630;BME280;17386;43.846;25.950;2023-04-07T02:13:15;101059.44;;;6.52;75.15
20630;BME280;17386;43.846;25.950;2023-04-07T02:15:41;101056.94;;;6.42;75.51
20630;BME280;17386;43.846;25.950;2023-04-07T02:18:10;101057.69;;;6.53;75.79
20630;BME280;17386;43.846;25.950;2023-04-07T02:20:37;101064.75;;;6.49;75.35
20630;BME280;17386;43.846;25.950;2023-04-07T02:23:06;101059.59;;;6.42;74.37
20630;BME280;17386;43.846;25.950;2023-04-07T02:25:32;101064.91;;;6.37;74.83
20630;BME280;17386;43.846;25.950;2023-04-07T02:27:59;101058.66;;;6.46;75.01
20630;BME280;17386;43.846;25.950;2023-04-07T02:30:26;101060.63;;;6.28;75.44
20630;BME280;17386;43.846;25.950;2023-04-07T02:32:52;101066.94;;;6.17;75.53
20630;BME280;17386;43.846;25.950;2023-04-07T02:35:18;101072.13;;;6.23;75.39
20630;BME280;17386;43.846;25.950;2023-04-07T02:37:44;101065.94;;;6.27;75.44
20630;BME280;17386;43.846;25.950;2023-04-07T02:40:10;101067.91;;;6.11;76.03
20630;BME280;17386;43.846;25.950;2023-04-07T02:42:36;101064.47;;;6.03;76.26
20630;BME280;17386;43.846;25.950;2023-04-07T02:45:03;101077.63;;;6.06;76.40
20630;BME280;17386;43.846;25.950;2023-04-07T02:47:28;101069.66;;;6.09;76.41
20630;BME280;17386;43.846;25.950;2023-04-07T02:49:54;101079.41;;;6.04;76.95
20630;BME280;17386;43.846;25.950;2023-04-07T02:52:19;101075.81;;;6.10;76.54
20630;BME280;17386;43.846;25.950;2023-04-07T02:54:45;101071.38;;;6.13;76.52
20630;BME280;17386;43.846;25.950;2023-04-07T02:57:10;101076.66;;;6.13;76.18
20630;BME280;17386;43.846;25.950;2023-04-07T02:59:35;101075.72;;;6.19;76.10
20630;BME280;17386;43.846;25.950;2023-04-07T03:02:01;101079.31;;;6.13;76.35
20630;BME280;17386;43.846;25.950;2023-04-07T03:04:26;101088.25;;;6.00;77.15
20630;BME280;17386;43.846;25.950;2023-04-07T03:06:52;101082.22;;;5.86;78.17
20630;BME280;17386;43.846;25.950;2023-04-07T03:09:17;101087.34;;;6.01;77.53
20630;BME280;17386;43.846;25.950;2023-04-07T03:11:43;101090.97;;;5.88;77.82
20630;BME280;17386;43.846;25.950;2023-04-07T03:14:08;101092.78;;;5.83;78.19
20630;BME280;17386;43.846;25.950;2023-04-07T03:16:33;101098.00;;;5.92;77.99
20630;BME280;17386;43.846;25.950;2023-04-07T03:18:59;101087.50;;;5.83;78.04
20630;BME280;17386;43.846;25.950;2023-04-07T03:21:24;101096.28;;;5.91;77.63
20630;BME280;17386;43.846;25.950;2023-04-07T03:23:50;101087.38;;;5.99;77.37
20630;BME280;17386;43.846;25.950;2023-04-07T03:26:16;101093.56;;;5.95;77.39
20630;BME280;17386;43.846;25.950;2023-04-07T03:28:41;101086.56;;;5.90;77.20
20630;BME280;17386;43.846;25.950;2023-04-07T03:31:07;101107.66;;;5.88;77.21
20630;BME280;17386;43.846;25.950;2023-04-07T03:33:32;101098.00;;;5.89;77.32
20630;BME280;17386;43.846;25.950;2023-04-07T03:35:58;101113.81;;;5.90;77.16
20630;BME280;17386;43.846;25.950;2023-04-07T03:38:24;101106.78;;;5.89;76.82
20630;BME280;17386;43.846;25.950;2023-04-07T03:40:50;101104.19;;;5.86;76.92
20630;BME280;17386;43.846;25.950;2023-04-07T03:43:15;101116.53;;;5.81;76.88
20630;BME280;17386;43.846;25.950;2023-04-07T03:45:41;101112.09;;;5.83;77.07
20630;BME280;17386;43.846;25.950;2023-04-07T03:48:07;101128.78;;;5.87;76.55
20630;BME280;17386;43.846;25.950;2023-04-07T03:50:39;101120.91;;;5.85;75.91
20630;BME280;17386;43.846;25.950;2023-04-07T03:53:05;101112.94;;;5.88;75.58
20630;BME280;17386;43.846;25.950;2023-04-07T03:55:33;101123.44;;;5.96;75.32
20630;BME280;17386;43.846;25.950;2023-04-07T03:57:58;101124.38;;;5.90;75.68
20630;BME280;17386;43.846;25.950;2023-04-07T04:00:24;101131.34;;;5.96;74.90
20630;BME280;17386;43.846;25.950;2023-04-07T04:02:50;101130.50;;;5.94;74.96
20630;BME280;17386;43.846;25.950;2023-04-07T04:05:15;101134.97;;;5.83;74.93
20630;BME280;17386;43.846;25.950;2023-04-07T04:07:41;101138.53;;;5.79;74.70
20630;BME280;17386;43.846;25.950;2023-04-07T04:10:06;101137.59;;;5.86;74.05
20630;BME280;17386;43.846;25.950;2023-04-07T04:12:32;101140.16;;;5.95;73.42
20630;BME280;17386;43.846;25.950;2023-04-07T04:14:57;101143.66;;;5.98;73.24
20630;BME280;17386;43.846;25.950;2023-04-07T04:17:24;101143.59;;;6.03;73.01
20630;BME280;17386;43.846;25.950;2023-04-07T04:19:49;101142.56;;;6.18;72.50
20630;BME280;17386;43.846;25.950;2023-04-07T04:22:15;101154.00;;;6.18;72.25
20630;BME280;17386;43.846;25.950;2023-04-07T04:24:41;101147.84;;;6.15;72.03
20630;BME280;17386;43.846;25.950;2023-04-07T04:27:06;101149.50;;;6.23;72.86
20630;BME280;17386;43.846;25.950;2023-04-07T04:29:32;101154.69;;;6.34;71.91
20630;BME280;17386;43.846;25.950;2023-04-07T04:31:57;101156.31;;;6.46;71.46
20630;BME280;17386;43.846;25.950;2023-04-07T04:34:23;101165.06;;;6.49;70.89
20630;BME280;17386;43.846;25.950;2023-04-07T04:36:48;101157.09;;;6.54;71.34
20630;BME280;17386;43.846;25.950;2023-04-07T04:39:14;101172.78;;;6.66;70.38
20630;BME280;17386;43.846;25.950;2023-04-07T04:41:39;101174.41;;;6.75;70.20
20630;BME280;17386;43.846;25.950;2023-04-07T04:44:05;101179.78;;;6.69;70.75
20630;BME280;17386;43.846;25.950;2023-04-07T04:46:30;101170.97;;;6.68;71.44
20630;BME280;17386;43.846;25.950;2023-04-07T04:48:56;101188.38;;;6.83;70.58
20630;BME280;17386;43.846;25.950;2023-04-07T04:51:22;101186.41;;;6.99;70.15
20630;BME280;17386;43.846;25.950;2023-04-07T04:53:47;101189.84;;;7.07;69.43
20630;BME280;17386;43.846;25.950;2023-04-07T04:56:13;101195.00;;;7.13;69.62
20630;BME280;17386;43.846;25.950;2023-04-07T04:58:39;101188.88;;;7.11;69.37
20630;BME280;17386;43.846;25.950;2023-04-07T05:01:06;101196.56;;;7.26;68.54
20630;BME280;17386;43.846;25.950;2023-04-07T05:03:31;101199.31;;;7.22;68.05
20630;BME280;17386;43.846;25.950;2023-04-07T05:05:57;101194.66;;;7.37;68.08
20630;BME280;17386;43.846;25.950;2023-04-07T05:08:22;101201.53;;;7.49;67.64
20630;BME280;17386;43.846;25.950;2023-04-07T05:10:47;101199.72;;;7.51;66.97
20630;BME280;17386;43.846;25.950;2023-04-07T05:13:13;101203.19;;;7.55;66.17
20630;BME280;17386;43.846;25.950;2023-04-07T05:15:40;101207.56;;;7.57;65.09
20630;BME280;17386;43.846;25.950;2023-04-07T05:18:05;101222.06;;;7.30;66.81
20630;BME280;17386;43.846;25.950;2023-04-07T05:20:31;101222.16;;;7.24;66.12
20630;BME280;17386;43.846;25.950;2023-04-07T05:22:57;101224.66;;;7.35;66.37
20630;BME280;17386;43.846;25.950;2023-04-07T05:25:23;101220.69;;;7.63;65.15
20630;BME280;17386;43.846;25.950;2023-04-07T05:27:49;101222.31;;;7.72;64.25
20630;BME280;17386;43.846;25.950;2023-04-07T05:30:14;101220.50;;;7.76;64.15
20630;BME280;17386;43.846;25.950;2023-04-07T05:32:40;101217.22;;;7.60;64.16
20630;BME280;17386;43.846;25.950;2023-04-07T05:35:05;101220.84;;;7.53;64.32
20630;BME280;17386;43.846;25.950;2023-04-07T05:37:31;101218.06;;;7.63;64.79
20630;BME280;17386;43.846;25.950;2023-04-07T05:39:57;101228.44;;;7.74;63.55
20630;BME280;17386;43.846;25.950;2023-04-07T05:42:22;101226.56;;;7.81;63.90
20630;BME280;17386;43.846;25.950;2023-04-07T05:44:47;101236.03;;;7.95;63.94
20630;BME280;17386;43.846;25.950;2023-04-07T05:47:13;101242.66;;;7.67;63.18
20630;BME280;17386;43.846;25.950;2023-04-07T05:49:38;101232.06;;;7.70;64.19
20630;BME280;17386;43.846;25.950;2023-04-07T05:52:10;101243.53;;;7.69;63.69
20630;BME280;17386;43.846;25.950;2023-04-07T05:54:36;101237.31;;;7.72;63.95
20630;BME280;17386;43.846;25.950;2023-04-07T05:57:01;101245.31;;;7.67;63.76
20630;BME280;17386;43.846;25.950;2023-04-07T05:59:27;101245.09;;;7.82;63.95
20630;BME280;17386;43.846;25.950;2023-04-07T06:01:53;101250.19;;;7.93;64.05
20630;BME280;17386;43.846;25.950;2023-04-07T06:04:18;101255.31;;;8.02;63.86
20630;BME280;17386;43.846;25.950;2023-04-07T06:06:43;101249.84;;;8.13;63.11
20630;BME280;17386;43.846;25.950;2023-04-07T06:09:09;101256.66;;;8.26;62.91
20630;BME280;17386;43.846;25.950;2023-04-07T06:11:34;101256.19;;;8.04;63.30
20630;BME280;17386;43.846;25.950;2023-04-07T06:14:00;101257.72;;;8.16;62.92
20630;BME280;17386;43.846;25.950;2023-04-07T06:16:26;101255.19;;;8.11;63.11
20630;BME280;17386;43.846;25.950;2023-04-07T06:18:51;101257.78;;;8.13;63.90
20630;BME280;17386;43.846;25.950;2023-04-07T06:21:17;101261.41;;;8.07;63.71
20630;BME280;17386;43.846;25.950;2023-04-07T06:23:42;101263.78;;;8.24;63.49
20630;BME280;17386;43.846;25.950;2023-04-07T06:26:11;101265.81;;;8.07;63.27
20630;BME280;17386;43.846;25.950;2023-04-07T06:28:37;101263.00;;;8.16;63.74
20630;BME280;17386;43.846;25.950;2023-04-07T06:31:02;101253.38;;;8.13;63.72
20630;BME280;17386;43.846;25.950;2023-04-07T06:33:28;101267.66;;;8.03;65.40
20630;BME280;17386;43.846;25.950;2023-04-07T06:35:53;101265.41;;;8.30;65.21
20630;BME280;17386;43.846;25.950;2023-04-07T06:38:19;101266.22;;;8.38;63.81
20630;BME280;17386;43.846;25.950;2023-04-07T06:40:44;101279.00;;;8.61;64.18
20630;BME280;17386;43.846;25.950;2023-04-07T06:43:10;101275.59;;;8.54;64.28
20630;BME280;17386;43.846;25.950;2023-04-07T06:45:35;101278.75;;;8.74;64.01
20630;BME280;17386;43.846;25.950;2023-04-07T06:48:01;101278.44;;;8.90;64.02
20630;BME280;17386;43.846;25.950;2023-04-07T06:50:26;101282.34;;;8.72;64.10
20630;BME280;17386;43.846;25.950;2023-04-07T06:52:52;101276.88;;;8.78;64.93
20630;BME280;17386;43.846;25.950;2023-04-07T06:55:17;101284.91;;;8.75;64.11
20630;BME280;17386;43.846;25.950;2023-04-07T06:57:42;101281.25;;;8.82;64.56
20630;BME280;17386;43.846;25.950;2023-04-07T07:00:08;101284.31;;;9.04;64.55
20630;BME280;17386;43.846;25.950;2023-04-07T07:02:34;101298.84;;;8.85;63.30
20630;BME280;17386;43.846;25.950;2023-04-07T07:05:00;101291.72;;;8.88;64.27
20630;BME280;17386;43.846;25.950;2023-04-07T07:07:26;101292.16;;;9.10;63.80
20630;BME280;17386;43.846;25.950;2023-04-07T07:09:52;101300.09;;;9.10;62.72
20630;BME280;17386;43.846;25.950;2023-04-07T07:12:18;101300.69;;;8.81;63.63
20630;BME280;17386;43.846;25.950;2023-04-07T07:14:43;101299.63;;;8.90;64.31
20630;BME280;17386;43.846;25.950;2023-04-07T07:17:09;101308.41;;;8.92;63.76
20630;BME280;17386;43.846;25.950;2023-04-07T07:19:34;101301.38;;;8.92;64.90
20630;BME280;17386;43.846;25.950;2023-04-07T07:22:00;101312.22;;;8.79;65.50
20630;BME280;17386;43.846;25.950;2023-04-07T07:24:28;101319.09;;;8.89;65.51
20630;BME280;17386;43.846;25.950;2023-04-07T07:26:53;101314.75;;;8.85;65.55
20630;BME280;17386;43.846;25.950;2023-04-07T07:29:19;101312.69;;;8.99;65.61
20630;BME280;17386;43.846;25.950;2023-04-07T07:31:44;101318.50;;;8.73;66.66
20630;BME280;17386;43.846;25.950;2023-04-07T07:34:10;101318.28;;;8.84;66.90
20630;BME280;17386;43.846;25.950;2023-04-07T07:36:35;101314.94;;;9.19;64.45
20630;BME280;17386;43.846;25.950;2023-04-07T07:39:01;101319.13;;;9.30;63.08
20630;BME280;17386;43.846;25.950;2023-04-07T07:41:26;101324.13;;;9.02;63.22
20630;BME280;17386;43.846;25.950;2023-04-07T07:43:51;101322.56;;;8.92;63.85
20630;BME280;17386;43.846;25.950;2023-04-07T07:46:17;101324.34;;;8.90;63.53
20630;BME280;17386;43.846;25.950;2023-04-07T07:48:42;101320.44;;;9.10;64.31
20630;BME280;17386;43.846;25.950;2023-04-07T07:51:08;101327.91;;;9.34;63.71
20630;BME280;17386;43.846;25.950;2023-04-07T07:53:33;101304.63;;;9.05;63.62
20630;BME280;17386;43.846;25.950;2023-04-07T07:55:59;101314.47;;;9.42;64.21
20630;BME280;17386;43.846;25.950;2023-04-07T07:58:24;101312.06;;;9.70;63.55
20630;BME280;17386;43.846;25.950;2023-04-07T08:00:49;101314.06;;;9.97;63.46
20630;BME280;17386;43.846;25.950;2023-04-07T08:03:15;101324.56;;;10.02;61.01
20630;BME280;17386;43.846;25.950;2023-04-07T08:05:41;101326.66;;;9.50;61.77
20630;BME280;17386;43.846;25.950;2023-04-07T08:08:07;101328.03;;;9.67;62.56
20630;BME280;17386;43.846;25.950;2023-04-07T08:10:32;101329.69;;;9.34;62.23
20630;BME280;17386;43.846;25.950;2023-04-07T08:12:58;101326.25;;;9.28;64.05
20630;BME280;17386;43.846;25.950;2023-04-07T08:15:23;101321.88;;;9.66;63.68
20630;BME280;17386;43.846;25.950;2023-04-07T08:17:48;101328.81;;;10.10;62.93
20630;BME280;17386;43.846;25.950;2023-04-07T08:20:14;101329.44;;;10.20;61.83
20630;BME280;17386;43.846;25.950;2023-04-07T08:22:40;101326.44;;;9.98;61.69
20630;BME280;17386;43.846;25.950;2023-04-07T08:25:07;101329.00;;;10.01;62.10
20630;BME280;17386;43.846;25.950;2023-04-07T08:27:32;101327.13;;;10.42;61.18
20630;BME280;17386;43.846;25.950;2023-04-07T08:30:04;101323.34;;;10.52;60.73
20630;BME280;17386;43.846;25.950;2023-04-07T08:32:37;101323.09;;;10.94;60.49
20630;BME280;17386;43.846;25.950;2023-04-07T08:35:03;101315.09;;;11.27;59.08
20630;BME280;17386;43.846;25.950;2023-04-07T08:37:30;101324.66;;;11.32;59.91
20630;BME280;17386;43.846;25.950;2023-04-07T08:39:55;101331.09;;;11.23;58.57
20630;BME280;17386;43.846;25.950;2023-04-07T08:42:24;101328.50;;;11.22;57.59
20630;BME280;17386;43.846;25.950;2023-04-07T08:44:53;101332.03;;;10.91;59.39
20630;BME280;17386;43.846;25.950;2023-04-07T08:47:20;101326.84;;;10.87;59.75
20630;BME280;17386;43.846;25.950;2023-04-07T08:49:49;101319.84;;;11.15;59.23
20630;BME280;17386;43.846;25.950;2023-04-07T08:52:17;101323.06;;;11.25;58.47
20630;BME280;17386;43.846;25.950;2023-04-07T08:54:45;101326.75;;;11.21;57.60
20630;BME280;17386;43.846;25.950;2023-04-07T08:57:11;101320.13;;;11.36;57.83
20630;BME280;17386;43.846;25.950;2023-04-07T08:59:37;101324.06;;;11.52;58.21
20630;BME280;17386;43.846;25.950;2023-04-07T09:02:07;101323.81;;;11.60;57.24
20630;BME280;17386;43.846;25.950;2023-04-07T09:04:33;101332.69;;;11.90;55.87
20630;BME280;17386;43.846;25.950;2023-04-07T09:06:59;101322.69;;;11.68;55.44
20630;BME280;17386;43.846;25.950;2023-04-07T09:09:26;101330.56;;;11.71;55.25
20630;BME280;17386;43.846;25.950;2023-04-07T09:11:51;101336.06;;;11.65;55.43
20630;BME280;17386;43.846;25.950;2023-04-07T09:14:17;101334.28;;;11.66;55.78
20630;BME280;17386;43.846;25.950;2023-04-07T09:16:45;101334.28;;;11.66;55.87
20630;BME280;17386;43.846;25.950;2023-04-07T09:19:10;101339.94;;;11.55;55.53
20630;BME280;17386;43.846;25.950;2023-04-07T09:21:52;101339.00;;;11.87;55.49
20630;BME280;17386;43.846;25.950;2023-04-07T09:24:28;101328.88;;;12.25;55.45
20630;BME280;17386;43.846;25.950;2023-04-07T09:27:08;101340.38;;;12.78;55.34
20630;BME280;17386;43.846;25.950;2023-04-07T09:29:34;101344.94;;;12.50;52.30
20630;BME280;17386;43.846;25.950;2023-04-07T09:32:00;101342.41;;;11.91;53.01
20630;BME280;17386;43.846;25.950;2023-04-07T09:34:31;101341.69;;;11.86;53.74
20630;BME280;17386;43.846;25.950;2023-04-07T09:36:57;101352.78;;;11.70;54.80
20630;BME280;17386;43.846;25.950;2023-04-07T09:39:23;101338.72;;;11.65;54.09
20630;BME280;17386;43.846;25.950;2023-04-07T09:41:50;101347.00;;;11.86;55.25
20630;BME280;17386;43.846;25.950;2023-04-07T09:44:20;101342.88;;;12.31;54.33
20630;BME280;17386;43.846;25.950;2023-04-07T09:46:56;101339.63;;;11.94;53.62
20630;BME280;17386;43.846;25.950;2023-04-07T09:49:23;101343.72;;;12.05;52.97
20630;BME280;17386;43.846;25.950;2023-04-07T09:54:33;101346.19;;;12.38;51.93
20630;BME280;17386;43.846;25.950;2023-04-07T09:57:01;101349.19;;;12.29;52.28
20630;BME280;17386;43.846;25.950;2023-04-07T09:59:28;101353.59;;;12.30;53.15
20630;BME280;17386;43.846;25.950;2023-04-07T10:01:54;101346.28;;;12.35;53.42
20630;BME280;17386;43.846;25.950;2023-04-07T10:04:21;101354.75;;;12.99;52.60
20630;BME280;17386;43.846;25.950;2023-04-07T10:06:46;101351.97;;;13.27;51.34
20630;BME280;17386;43.846;25.950;2023-04-07T10:09:13;101349.19;;;13.54;50.66
20630;BME280;17386;43.846;25.950;2023-04-07T10:11:39;101342.84;;;14.23;48.51
20630;BME280;17386;43.846;25.950;2023-04-07T10:14:08;101347.47;;;14.40;47.44
20630;BME280;17386;43.846;25.950;2023-04-07T10:16:34;101349.84;;;13.82;48.60
20630;BME280;17386;43.846;25.950;2023-04-07T10:19:01;101357.38;;;13.73;49.02
20630;BME280;17386;43.846;25.950;2023-04-07T10:21:27;101358.56;;;13.64;48.51
20630;BME280;17386;43.846;25.950;2023-04-07T10:23:59;101335.84;;;13.54;48.50
20630;BME280;17386;43.846;25.950;2023-04-07T10:26:31;101351.84;;;12.80;49.64
20630;BME280;17386;43.846;25.950;2023-04-07T10:29:03;101358.19;;;11.97;51.11
20630;BME280;17386;43.846;25.950;2023-04-07T10:31:31;101349.59;;;12.68;50.83
20630;BME280;17386;43.846;25.950;2023-04-07T10:33:57;101339.56;;;13.26;48.64
20630;BME280;17386;43.846;25.950;2023-04-07T10:36:22;101352.38;;;13.40;47.29
20630;BME280;17386;43.846;25.950;2023-04-07T10:41:33;101361.84;;;13.25;48.22
20630;BME280;17386;43.846;25.950;2023-04-07T10:44:00;101351.31;;;13.44;47.76
20630;BME280;17386;43.846;25.950;2023-04-07T10:49:13;101358.59;;;13.40;46.39
20630;BME280;17386;43.846;25.950;2023-04-07T10:51:39;101368.19;;;13.21;47.33
20630;BME280;17386;43.846;25.950;2023-04-07T10:54:15;101370.19;;;13.39;46.50
20630;BME280;17386;43.846;25.950;2023-04-07T10:57:03;101358.94;;;13.55;46.94
20630;BME280;17386;43.846;25.950;2023-04-07T10:59:29;101360.81;;;13.03;48.37
20630;BME280;17386;43.846;25.950;2023-04-07T11:04:40;101353.47;;;13.58;47.79
20630;BME280;17386;43.846;25.950;2023-04-07T11:07:10;101356.53;;;13.94;46.79
20630;BME280;17386;43.846;25.950;2023-04-07T11:09:36;101354.16;;;14.30;45.46
20630;BME280;17386;43.846;25.950;2023-04-07T11:12:01;101345.09;;;14.34;46.31
20630;BME280;17386;43.846;25.950;2023-04-07T11:14:28;101346.94;;;14.74;44.57
20630;BME280;17386;43.846;25.950;2023-04-07T11:16:54;101353.72;;;15.03;44.61
20630;BME280;17386;43.846;25.950;2023-04-07T11:19:20;101356.66;;;14.97;44.78
20630;BME280;17386;43.846;25.950;2023-04-07T11:21:46;101350.34;;;15.19;44.39
20630;BME280;17386;43.846;25.950;2023-04-07T11:24:34;101348.56;;;15.38;43.42
20630;BME280;17386;43.846;25.950;2023-04-07T11:27:03;101337.31;;;15.30;42.92
20630;BME280;17386;43.846;25.950;2023-04-07T11:29:32;101346.06;;;14.10;46.20
20630;BME280;17386;43.846;25.950;2023-04-07T11:32:00;101355.19;;;14.70;44.72
20630;BME280;17386;43.846;25.950;2023-04-07T11:34:35;101354.22;;;15.12;43.69
20630;BME280;17386;43.846;25.950;2023-04-07T11:37:20;101343.78;;;15.65;42.87
20630;BME280;17386;43.846;25.950;2023-04-07T11:42:37;101345.19;;;15.53;41.55
20630;BME280;17386;43.846;25.950;2023-04-07T11:45:04;101341.97;;;16.21;40.74
20630;BME280;17386;43.846;25.950;2023-04-07T11:47:38;101337.00;;;15.94;40.42
20630;BME280;17386;43.846;25.950;2023-04-07T11:50:04;101350.84;;;15.85;40.86
20630;BME280;17386;43.846;25.950;2023-04-07T11:52:59;101342.16;;;15.22;41.92
20630;BME280;17386;43.846;25.950;2023-04-07T11:55:25;101340.59;;;15.18;42.10
20630;BME280;17386;43.846;25.950;2023-04-07T11:57:50;101338.25;;;15.68;41.61
20630;BME280;17386;43.846;25.950;2023-04-07T12:00:16;101344.91;;;15.97;40.90
20630;BME280;17386;43.846;25.950;2023-04-07T12:02:43;101341.78;;;16.06;41.61
20630;BME280;17386;43.846;25.950;2023-04-07T12:05:08;101345.16;;;16.10;41.83
20630;BME280;17386;43.846;25.950;2023-04-07T12:07:35;101336.34;;;16.61;41.80
20630;BME280;17386;43.846;25.950;2023-04-07T12:10:21;101347.16;;;15.69;40.50
20630;BME280;17386;43.846;25.950;2023-04-07T12:12:47;101335.94;;;15.79;40.76
20630;BME280;17386;43.846;25.950;2023-04-07T12:15:13;101348.44;;;15.98;40.83
20630;BME280;17386;43.846;25.950;2023-04-07T12:17:43;101325.97;;;16.36;41.20
20630;BME280;17386;43.846;25.950;2023-04-07T12:20:10;101346.03;;;16.64;40.15
20630;BME280;17386;43.846;25.950;2023-04-07T12:22:35;101339.72;;;16.11;39.52
20630;BME280;17386;43.846;25.950;2023-04-07T12:25:01;101351.28;;;16.31;40.60
20630;BME280;17386;43.846;25.950;2023-04-07T12:27:26;101344.84;;;16.52;40.57
20630;BME280;17386;43.846;25.950;2023-04-07T12:29:52;101350.25;;;15.97;40.72
20630;BME280;17386;43.846;25.950;2023-04-07T12:32:17;101349.53;;;16.30;40.56
20630;BME280;17386;43.846;25.950;2023-04-07T12:34:43;101356.25;;;16.02;41.57
20630;BME280;17386;43.846;25.950;2023-04-07T12:37:09;101362.00;;;15.76;41.28
20630;BME280;17386;43.846;25.950;2023-04-07T12:39:34;101356.75;;;15.15;43.56
20630;BME280;17386;43.846;25.950;2023-04-07T12:42:00;101346.06;;;14.54;44.72
20630;BME280;17386;43.846;25.950;2023-04-07T12:44:25;101357.25;;;14.41;45.94
20630;BME280;17386;43.846;25.950;2023-04-07T12:46:50;101354.88;;;13.90;48.11
20630;BME280;17386;43.846;25.950;2023-04-07T12:49:16;101374.81;;;13.34;50.55
20630;BME280;17386;43.846;25.950;2023-04-07T12:51:41;101361.13;;;13.20;51.90
20630;BME280;17386;43.846;25.950;2023-04-07T12:54:07;101360.38;;;13.15;53.67
20630;BME280;17386;43.846;25.950;2023-04-07T12:56:33;101359.91;;;13.29;52.14
20630;BME280;17386;43.846;25.950;2023-04-07T12:58:58;101374.59;;;13.40;51.82
20630;BME280;17386;43.846;25.950;2023-04-07T13:01:24;101356.84;;;13.63;51.64